Time;durP1;ratioP1;P1;durP2;ratioP2;P2;SDS_P1;SDS_P2;PMS_P1;PMS_P2;Temp;Humidity;BMP_temperature;BMP_pressure;BME280_temperature;BME280_humidity;BME280_pressure;Samples;Min_cycle;Max_cycle;Signal;HPM_P1;HPM_P2
2022/10/08 00:00:51;;;;;;;17.53;9.77;;;17.90;63.60;;;;;;5107485;27;20442;-86
2022/10/08 00:03:20;;;;;;;14.83;9.87;;;18.00;63.00;;;;;;5100800;28;20486;-86
2022/10/08 00:05:55;;;;;;;14.70;9.20;;;17.90;62.70;;;;;;5091471;27;20438;-88
2022/10/08 00:08:22;;;;;;;16.03;10.97;;;18.00;62.70;;;;;;5107717;27;20529;-87
2022/10/08 00:10:53;;;;;;;14.83;9.87;;;18.10;62.30;;;;;;5108104;27;20447;-89
2022/10/08 00:13:22;;;;;;;16.53;10.70;;;18.10;62.20;;;;;;5122261;27;20814;-86
2022/10/08 00:15:50;;;;;;;15.63;10.23;;;18.10;62.00;;;;;;5107466;27;20447;-88
2022/10/08 00:18:17;;;;;;;24.80;11.10;;;18.20;61.90;;;;;;5097297;28;20501;-86
2022/10/08 00:20:45;;;;;;;29.33;11.70;;;18.20;61.60;;;;;;5092078;27;20450;-86
2022/10/08 00:23:12;;;;;;;18.63;11.00;;;18.30;61.50;;;;;;5108195;27;20446;-87
2022/10/08 00:25:40;;;;;;;30.07;11.60;;;18.30;61.20;;;;;;5092013;27;20450;-89
2022/10/08 00:28:08;;;;;;;24.30;11.77;;;18.20;61.20;;;;;;5103851;28;20466;-89
2022/10/08 00:30:38;;;;;;;16.00;11.40;;;18.20;61.30;;;;;;5100498;28;20503;-86
2022/10/08 00:33:05;;;;;;;20.23;11.43;;;18.20;61.10;;;;;;5087987;27;20479;-86
2022/10/08 00:35:37;;;;;;;19.30;10.93;;;18.20;61.60;;;;;;5120008;27;20457;-86
2022/10/08 00:38:04;;;;;;;18.80;11.20;;;18.20;60.60;;;;;;5090392;27;20461;-86
2022/10/08 00:40:32;;;;;;;15.20;10.77;;;18.20;60.60;;;;;;5099183;28;20450;-87
2022/10/08 00:43:00;;;;;;;17.53;10.30;;;18.20;60.60;;;;;;5115843;27;20957;-88
2022/10/08 00:45:27;;;;;;;15.10;10.07;;;18.30;60.60;;;;;;5100208;28;20512;-87
2022/10/08 00:47:56;;;;;;;18.40;11.70;;;18.30;60.60;;;;;;5084002;28;20550;-86
2022/10/08 00:50:30;;;;;;;23.57;11.17;;;18.30;61.40;;;;;;5068327;28;20492;-86
2022/10/08 00:53:02;;;;;;;20.57;9.93;;;18.30;60.70;;;;;;5088228;28;20512;-87
2022/10/08 00:55:31;;;;;;;15.23;10.20;;;18.30;60.80;;;;;;5072341;28;20448;-87
2022/10/08 00:58:01;;;;;;;16.80;10.13;;;18.30;60.90;;;;;;5099460;28;20486;-86
2022/10/08 01:00:29;;;;;;;14.77;10.83;;;18.30;61.00;;;;;;5071487;28;20450;-86
2022/10/08 01:02:58;;;;;;;12.70;9.53;;;18.30;61.20;;;;;;5066925;28;20442;-88
2022/10/08 01:05:44;;;;;;;26.73;13.67;;;18.30;61.20;;;;;;5119737;28;20435;-86
2022/10/08 01:08:19;;;;;;;18.60;11.77;;;18.30;62.00;;;;;;5106127;27;20547;-86
2022/10/08 01:10:53;;;;;;;24.00;14.83;;;18.30;61.30;;;;;;5102756;27;20450;-88
2022/10/08 01:13:34;;;;;;;28.63;11.37;;;18.20;61.40;;;;;;5091981;27;21013;-87
2022/10/08 01:16:07;;;;;;;16.80;11.60;;;18.20;61.80;;;;;;5089501;27;20443;-86
2022/10/08 01:18:43;;;;;;;18.87;10.77;;;18.10;62.00;;;;;;5102912;27;20442;-86
2022/10/08 01:21:14;;;;;;;13.90;10.53;;;18.10;62.10;;;;;;5093604;27;20502;-86
2022/10/08 01:24:05;;;;;;;15.73;10.60;;;18.10;61.90;;;;;;5105848;27;20450;-86
2022/10/08 01:26:42;;;;;;;23.37;11.33;;;18.20;61.70;;;;;;5107825;27;20464;-86
2022/10/08 01:29:16;;;;;;;14.30;10.10;;;18.20;61.70;;;;;;5074095;27;20439;-87
2022/10/08 01:31:47;;;;;;;15.57;10.57;;;18.20;61.60;;;;;;5110568;27;20449;-87
2022/10/08 01:34:17;;;;;;;16.20;10.87;;;18.30;61.70;;;;;;5079654;27;20442;-87
2022/10/08 01:36:49;;;;;;;23.10;12.17;;;18.20;61.90;;;;;;5108282;27;21282;-87
2022/10/08 01:39:18;;;;;;;16.67;10.90;;;18.20;62.00;;;;;;5092976;27;20546;-87
2022/10/08 01:41:50;;;;;;;20.20;15.10;;;18.20;61.60;;;;;;5076219;28;20443;-86
2022/10/08 01:44:23;;;;;;;21.83;15.00;;;18.00;62.10;;;;;;5075018;27;20486;-87
2022/10/08 01:46:51;;;;;;;24.03;14.03;;;17.80;62.90;;;;;;5093081;27;20470;-88
2022/10/08 01:49:25;;;;;;;34.73;18.43;;;17.80;62.40;;;;;;5076782;27;20477;-86
2022/10/08 01:51:55;;;;;;;18.73;12.30;;;17.50;64.10;;;;;;5084649;27;20439;-86
2022/10/08 01:54:26;;;;;;;19.63;13.33;;;17.40;65.00;;;;;;5076382;27;20499;-87
2022/10/08 01:56:54;;;;;;;20.17;12.07;;;17.50;65.00;;;;;;5073382;27;20896;-86
2022/10/08 01:59:26;;;;;;;16.30;11.00;;;17.70;64.50;;;;;;5087875;27;20503;-89
2022/10/08 02:02:01;;;;;;;19.80;11.30;;;17.80;63.90;;;;;;5104534;27;20457;-87
2022/10/08 02:04:33;;;;;;;17.93;11.13;;;18.00;63.50;;;;;;5069236;27;20485;-86
2022/10/08 02:07:04;;;;;;;26.50;13.33;;;18.10;63.40;;;;;;5084369;28;20478;-86
2022/10/08 02:09:34;;;;;;;19.13;13.50;;;18.10;62.80;;;;;;5088477;27;20945;-87
2022/10/08 02:12:01;;;;;;;18.93;13.63;;;18.10;63.00;;;;;;5079519;27;20482;-88
2022/10/08 02:14:32;;;;;;;20.07;11.87;;;18.10;62.90;;;;;;5076976;27;20458;-86
2022/10/08 02:17:07;;;;;;;17.80;12.00;;;18.20;63.00;;;;;;5104880;28;20485;-86
2022/10/08 02:19:44;;;;;;;15.50;11.50;;;18.20;63.00;;;;;;5074973;27;20705;-86
2022/10/08 02:22:15;;;;;;;17.63;11.83;;;18.20;62.80;;;;;;5090044;27;20454;-86
2022/10/08 02:24:48;;;;;;;17.07;12.20;;;18.30;62.80;;;;;;5074462;28;20486;-88
2022/10/08 02:27:17;;;;;;;17.93;11.83;;;18.30;62.60;;;;;;5095068;27;20997;-86
2022/10/08 02:29:53;;;;;;;19.50;12.80;;;18.00;63.50;;;;;;5068408;27;20451;-86
2022/10/08 02:32:25;;;;;;;16.63;12.23;;;18.00;63.50;;;;;;5075986;27;20450;-88
2022/10/08 02:34:57;;;;;;;17.67;12.47;;;18.10;63.20;;;;;;5089864;27;20439;-87
2022/10/08 02:37:29;;;;;;;15.47;11.27;;;17.80;63.90;;;;;;5086329;27;21207;-86
2022/10/08 02:40:00;;;;;;;13.23;10.57;;;17.90;63.70;;;;;;5071053;28;20949;-86
2022/10/08 02:42:30;;;;;;;16.80;11.20;;;18.00;63.60;;;;;;5100061;27;20999;-86
2022/10/08 02:45:06;;;;;;;15.87;11.80;;;18.10;63.40;;;;;;5069747;27;20446;-89
2022/10/08 02:47:36;;;;;;;14.30;9.67;;;18.20;63.20;;;;;;5122463;27;20466;-87
2022/10/08 02:50:08;;;;;;;18.47;11.20;;;18.20;63.00;;;;;;5089710;27;20997;-87
2022/10/08 02:52:39;;;;;;;14.93;10.90;;;18.30;62.90;;;;;;5073927;27;20449;-87
2022/10/08 02:55:18;;;;;;;17.90;10.87;;;18.20;62.90;;;;;;5074223;27;20446;-87
2022/10/08 02:57:50;;;;;;;16.43;9.80;;;18.20;63.20;;;;;;5111828;27;20469;-88
2022/10/08 03:00:19;;;;;;;16.27;10.30;;;18.00;63.90;;;;;;5076558;27;20446;-88
2022/10/08 03:02:52;;;;;;;16.37;11.50;;;18.10;63.60;;;;;;5104370;27;20508;-88
2022/10/08 03:05:20;;;;;;;14.97;11.10;;;18.20;63.30;;;;;;5092960;27;20844;-86
2022/10/08 03:07:50;;;;;;;13.43;11.17;;;18.20;63.10;;;;;;5089355;27;20477;-88
2022/10/08 03:10:17;;;;;;;14.20;10.97;;;18.20;63.10;;;;;;5107322;27;20529;-86
2022/10/08 03:12:44;;;;;;;16.00;10.90;;;18.20;63.10;;;;;;5089546;27;20557;-86
2022/10/08 03:15:14;;;;;;;15.13;10.70;;;18.20;62.70;;;;;;5071229;27;20536;-88
2022/10/08 03:17:45;;;;;;;14.53;10.57;;;18.20;62.40;;;;;;5101091;27;20499;-86
2022/10/08 03:20:13;;;;;;;21.07;10.27;;;18.20;63.00;;;;;;5070092;27;21300;-87
2022/10/08 03:22:41;;;;;;;16.97;10.27;;;18.10;63.40;;;;;;5068466;27;20447;-89
2022/10/08 03:25:08;;;;;;;17.93;10.23;;;18.00;63.50;;;;;;5090991;28;20567;-87
2022/10/08 03:27:35;;;;;;;13.13;9.60;;;18.00;63.60;;;;;;5074869;27;20471;-87
2022/10/08 03:30:03;;;;;;;18.83;10.70;;;18.10;63.40;;;;;;5075536;27;21001;-87
2022/10/08 03:32:31;;;;;;;15.77;10.73;;;18.20;63.20;;;;;;5070476;27;20434;-86
2022/10/08 03:34:59;;;;;;;15.70;11.43;;;18.20;63.20;;;;;;5090511;27;20516;-86
2022/10/08 03:37:26;;;;;;;15.57;10.47;;;18.30;63.40;;;;;;5087225;27;20477;-87
2022/10/08 03:39:53;;;;;;;15.57;11.20;;;18.20;63.40;;;;;;5076077;27;20489;-89
2022/10/08 03:42:21;;;;;;;17.33;10.53;;;18.00;63.80;;;;;;5086134;27;20482;-86
2022/10/08 03:44:48;;;;;;;17.87;11.43;;;18.10;64.00;;;;;;5072091;27;20961;-87
2022/10/08 03:47:15;;;;;;;14.67;10.63;;;18.20;63.80;;;;;;5080300;27;20541;-86
2022/10/08 03:49:42;;;;;;;15.23;10.77;;;18.30;63.40;;;;;;5069969;27;20458;-87
2022/10/08 03:52:10;;;;;;;17.57;11.20;;;18.20;63.40;;;;;;5073353;27;20442;-86
2022/10/08 03:54:37;;;;;;;12.23;10.23;;;18.20;63.00;;;;;;5079718;27;20474;-88
2022/10/08 03:57:05;;;;;;;19.07;12.00;;;18.20;63.20;;;;;;5083865;27;20534;-87
2022/10/08 03:59:32;;;;;;;16.90;12.20;;;17.90;64.20;;;;;;5063643;27;20439;-89
2022/10/08 04:01:59;;;;;;;16.73;11.23;;;17.80;64.60;;;;;;5084641;27;20477;-87
2022/10/08 04:04:26;;;;;;;17.03;10.60;;;17.90;64.40;;;;;;5079666;27;20478;-86
2022/10/08 04:06:53;;;;;;;16.33;11.03;;;18.00;63.80;;;;;;5101990;28;20463;-87
2022/10/08 04:09:22;;;;;;;16.40;10.57;;;18.10;63.20;;;;;;5066985;27;20566;-87
2022/10/08 04:11:49;;;;;;;13.50;9.00;;;18.10;62.60;;;;;;5086639;27;20427;-87
2022/10/08 04:14:16;;;;;;;17.10;9.73;;;18.10;62.10;;;;;;5078169;28;20551;-88
2022/10/08 04:16:43;;;;;;;12.20;9.70;;;18.10;61.90;;;;;;5098513;27;20489;-86
2022/10/08 04:19:11;;;;;;;13.37;10.03;;;18.10;61.70;;;;;;5082655;27;20557;-88
2022/10/08 04:21:38;;;;;;;11.30;9.20;;;18.10;61.80;;;;;;5073538;27;20456;-90
2022/10/08 04:24:05;;;;;;;13.93;9.13;;;18.10;62.00;;;;;;5085588;27;20487;-87
2022/10/08 04:26:34;;;;;;;15.73;11.93;;;18.00;62.50;;;;;;5070349;27;20537;-86
2022/10/08 04:29:01;;;;;;;15.20;9.70;;;17.80;63.50;;;;;;5084971;27;20463;-86
2022/10/08 04:31:28;;;;;;;15.00;11.30;;;17.60;64.20;;;;;;5085995;27;20861;-88
2022/10/08 04:33:56;;;;;;;12.73;10.67;;;17.70;63.40;;;;;;5072390;28;20867;-87
2022/10/08 04:36:24;;;;;;;20.63;13.07;;;17.70;62.90;;;;;;5086504;27;20508;-86
2022/10/08 04:38:52;;;;;;;22.17;13.07;;;17.80;62.70;;;;;;5080668;27;20455;-87
2022/10/08 04:41:22;;;;;;;26.50;17.73;;;17.80;62.30;;;;;;5102999;28;20501;-89
2022/10/08 04:43:51;;;;;;;22.13;16.33;;;17.80;61.50;;;;;;5074493;28;20553;-87
2022/10/08 04:46:20;;;;;;;19.83;14.20;;;17.70;61.50;;;;;;5107762;28;20451;-86
2022/10/08 04:48:48;;;;;;;25.93;15.13;;;17.70;61.50;;;;;;5101730;28;20467;-86
2022/10/08 04:51:16;;;;;;;19.40;13.47;;;17.80;61.80;;;;;;5087849;28;20478;-92
2022/10/08 04:53:44;;;;;;;19.17;13.10;;;17.80;62.10;;;;;;5069159;28;20473;-90
2022/10/08 04:56:13;;;;;;;13.97;11.23;;;17.70;61.80;;;;;;5070967;28;20443;-87
2022/10/08 04:58:40;;;;;;;14.03;9.80;;;17.70;62.10;;;;;;5075043;28;20467;-88
2022/10/08 05:01:12;;;;;;;13.40;9.03;;;17.70;60.90;;;;;;5075791;28;20450;-86
2022/10/08 05:03:41;;;;;;;11.27;9.37;;;17.70;60.50;;;;;;5090606;28;20534;-86
2022/10/08 05:06:09;;;;;;;17.37;11.60;;;17.60;60.30;;;;;;5083769;28;20482;-87
2022/10/08 05:08:37;;;;;;;18.20;11.53;;;17.60;60.80;;;;;;5074268;28;20484;-87
2022/10/08 05:11:04;;;;;;;18.40;11.00;;;17.60;60.90;;;;;;5075128;28;20437;-90
2022/10/08 05:13:31;;;;;;;15.60;11.00;;;17.60;60.50;;;;;;5103022;28;20534;-86
2022/10/08 05:16:03;;;;;;;17.40;12.30;;;17.60;60.20;;;;;;5074265;28;20986;-87
2022/10/08 05:18:32;;;;;;;18.93;12.10;;;17.60;60.40;;;;;;5087145;28;20445;-86
2022/10/08 05:21:02;;;;;;;18.83;9.73;;;17.50;60.70;;;;;;5084626;28;20558;-89
2022/10/08 05:23:29;;;;;;;12.33;8.43;;;17.50;60.20;;;;;;5085632;28;20475;-87
2022/10/08 05:25:57;;;;;;;12.63;9.13;;;17.40;60.00;;;;;;5088666;28;20891;-87
2022/10/08 05:28:24;;;;;;;12.37;9.70;;;17.40;60.70;;;;;;5088917;27;20478;-86
2022/10/08 05:30:51;;;;;;;15.27;10.73;;;17.40;60.80;;;;;;5070503;28;20454;-86
2022/10/08 05:33:18;;;;;;;21.10;13.00;;;17.40;60.00;;;;;;5101272;28;20443;-86
2022/10/08 05:35:46;;;;;;;21.70;12.10;;;17.20;61.50;;;;;;5099074;28;20474;-88
2022/10/08 05:38:13;;;;;;;44.33;23.67;;;17.10;60.80;;;;;;5073244;28;21106;-86
2022/10/08 05:40:40;;;;;;;98.57;48.10;;;17.00;61.70;;;;;;5090113;28;20449;-85
2022/10/08 05:43:08;;;;;;;67.10;32.73;;;17.10;61.70;;;;;;5080870;28;20454;-89
2022/10/08 05:45:35;;;;;;;28.67;16.50;;;17.10;61.10;;;;;;5114534;28;20433;-88
2022/10/08 05:48:02;;;;;;;20.17;11.50;;;17.10;60.50;;;;;;5093183;28;20467;-87
2022/10/08 05:50:29;;;;;;;15.63;9.20;;;17.10;59.90;;;;;;5093386;28;20485;-87
2022/10/08 05:52:57;;;;;;;13.20;8.77;;;17.00;59.80;;;;;;5086351;27;20474;-88
2022/10/08 05:55:24;;;;;;;11.00;9.10;;;17.10;60.00;;;;;;5096532;27;20451;-88
2022/10/08 05:57:51;;;;;;;14.90;10.50;;;17.00;59.90;;;;;;5114711;27;20545;-87
2022/10/08 06:00:19;;;;;;;11.03;8.70;;;17.00;61.20;;;;;;5109012;27;20506;-87
2022/10/08 06:02:48;;;;;;;15.10;9.90;;;17.00;61.40;;;;;;5080268;27;20529;-87
2022/10/08 06:05:15;;;;;;;25.33;13.00;;;17.10;61.10;;;;;;5099535;27;20465;-86
2022/10/08 06:07:42;;;;;;;18.57;12.13;;;17.10;61.30;;;;;;5094544;27;20472;-86
2022/10/08 06:10:11;;;;;;;29.97;20.03;;;17.00;61.50;;;;;;5101220;27;20840;-87
2022/10/08 06:12:38;;;;;;;25.07;16.40;;;17.00;62.70;;;;;;5085066;27;20530;-88
2022/10/08 06:15:06;;;;;;;17.53;12.70;;;17.00;62.60;;;;;;5099301;27;21264;-86
2022/10/08 06:17:33;;;;;;;23.37;12.33;;;16.90;62.70;;;;;;5091343;27;20471;-86
2022/10/08 06:20:00;;;;;;;14.30;11.30;;;16.90;63.10;;;;;;5101010;27;20462;-89
2022/10/08 06:22:27;;;;;;;18.30;12.23;;;17.10;63.20;;;;;;5083453;27;20477;-87
2022/10/08 06:24:54;;;;;;;24.67;14.43;;;17.10;62.60;;;;;;5083405;27;20488;-91
2022/10/08 06:27:23;;;;;;;22.77;15.07;;;17.20;62.70;;;;;;5087125;27;20494;-91
2022/10/08 06:29:50;;;;;;;25.53;18.20;;;17.30;62.90;;;;;;5072724;27;20491;-86
2022/10/08 06:32:17;;;;;;;23.13;16.73;;;17.30;62.80;;;;;;5105481;27;20463;-86
2022/10/08 06:34:44;;;;;;;31.20;17.83;;;17.50;62.60;;;;;;5084399;27;20802;-86
2022/10/08 06:37:11;;;;;;;27.63;17.13;;;17.60;62.30;;;;;;5114617;27;20502;-86
2022/10/08 06:39:38;;;;;;;26.60;17.27;;;17.60;61.80;;;;;;5078024;27;20465;-88
2022/10/08 06:42:05;;;;;;;27.47;18.33;;;17.70;61.80;;;;;;5095913;28;20501;-87
2022/10/08 06:44:40;;;;;;;30.63;18.20;;;17.70;61.50;;;;;;5105213;27;20529;-87
2022/10/08 06:47:07;;;;;;;29.63;16.07;;;17.70;61.40;;;;;;5074766;27;20512;-86
2022/10/08 06:49:34;;;;;;;22.03;12.13;;;17.70;61.90;;;;;;5081383;27;20465;-87
2022/10/08 06:52:01;;;;;;;12.30;8.77;;;17.60;61.60;;;;;;5115611;27;20442;-90
2022/10/08 06:54:29;;;;;;;18.97;11.67;;;17.60;61.60;;;;;;5097006;27;20521;-86
2022/10/08 06:56:56;;;;;;;12.67;8.27;;;17.70;61.50;;;;;;5115509;27;20486;-87
2022/10/08 06:59:23;;;;;;;9.10;5.87;;;17.70;61.00;;;;;;5082061;27;20434;-86
2022/10/08 07:01:51;;;;;;;6.30;5.70;;;17.80;60.50;;;;;;5087122;28;20724;-89
2022/10/08 07:04:18;;;;;;;11.07;4.90;;;17.80;60.10;;;;;;5086586;27;20458;-88
2022/10/08 07:06:45;;;;;;;6.83;4.53;;;17.80;59.90;;;;;;5100596;27;20465;-86
2022/10/08 07:09:12;;;;;;;6.00;4.03;;;17.80;59.50;;;;;;5095678;27;20536;-90
2022/10/08 07:11:39;;;;;;;8.77;4.53;;;17.80;59.40;;;;;;5082779;27;20479;-88
2022/10/08 07:14:06;;;;;;;5.70;4.80;;;17.70;59.10;;;;;;5086508;27;20520;-88
2022/10/08 07:16:33;;;;;;;6.80;4.20;;;17.70;59.50;;;;;;5077588;27;20466;-90
2022/10/08 07:19:02;;;;;;;4.60;3.47;;;17.70;58.70;;;;;;5114315;27;20542;-89
2022/10/08 07:21:30;;;;;;;8.67;4.83;;;17.60;58.00;;;;;;5088572;27;20478;-87
2022/10/08 07:23:59;;;;;;;16.00;10.10;;;17.60;57.80;;;;;;5083224;27;20442;-87
2022/10/08 07:26:28;;;;;;;18.60;12.80;;;17.60;57.90;;;;;;5081051;27;20458;-87
2022/10/08 07:28:57;;;;;;;14.37;11.30;;;17.50;57.60;;;;;;5112778;27;20466;-87
2022/10/08 07:31:28;;;;;;;16.30;12.03;;;17.50;57.50;;;;;;5081116;27;20449;-86
2022/10/08 07:33:55;;;;;;;9.80;8.47;;;17.60;57.40;;;;;;5110896;27;20484;-87
2022/10/08 07:36:25;;;;;;;8.87;5.47;;;17.60;57.10;;;;;;5111760;27;20525;-86
2022/10/08 07:38:57;;;;;;;7.17;3.50;;;17.50;57.30;;;;;;5093834;28;20522;-87
2022/10/08 07:41:24;;;;;;;6.40;3.77;;;17.40;57.00;;;;;;5094938;27;21009;-87
2022/10/08 07:43:52;;;;;;;10.73;3.90;;;17.50;56.90;;;;;;5112080;27;20486;-86
2022/10/08 07:46:20;;;;;;;5.80;4.47;;;17.40;57.10;;;;;;5070271;27;20438;-88
2022/10/08 07:48:49;;;;;;;6.13;3.23;;;17.40;57.20;;;;;;5080298;27;21070;-87
2022/10/08 07:51:18;;;;;;;7.03;3.90;;;17.40;57.50;;;;;;5101755;27;20481;-86
2022/10/08 07:53:47;;;;;;;8.43;3.20;;;17.40;57.40;;;;;;5093435;27;20434;-87
2022/10/08 07:56:15;;;;;;;4.00;2.70;;;17.40;56.60;;;;;;5111578;27;20997;-88
2022/10/08 07:58:43;;;;;;;3.10;2.70;;;17.40;56.00;;;;;;5083688;27;20449;-87
2022/10/08 08:01:14;;;;;;;4.97;2.80;;;17.50;56.20;;;;;;5092467;27;20474;-87
2022/10/08 08:03:41;;;;;;;7.40;2.97;;;17.70;56.20;;;;;;5075891;27;20449;-88
2022/10/08 08:06:11;;;;;;;6.93;3.40;;;17.80;56.10;;;;;;5107856;27;20443;-87
2022/10/08 08:08:39;;;;;;;10.63;3.17;;;17.90;55.90;;;;;;5081036;27;20447;-87
2022/10/08 08:11:09;;;;;;;11.33;6.53;;;18.10;55.80;;;;;;5079114;27;21321;-86
2022/10/08 08:13:39;;;;;;;7.50;3.13;;;18.20;55.80;;;;;;5079660;27;21042;-88
2022/10/08 08:16:08;;;;;;;5.67;3.03;;;18.20;55.40;;;;;;5079339;27;21048;-86
2022/10/08 08:18:37;;;;;;;3.87;2.70;;;18.30;55.20;;;;;;5112505;27;20490;-84
2022/10/08 08:21:06;;;;;;;7.80;3.10;;;18.40;55.20;;;;;;5098275;28;20446;-85
2022/10/08 08:23:35;;;;;;;8.37;4.03;;;18.40;55.30;;;;;;5116549;27;21273;-84
2022/10/08 08:26:04;;;;;;;6.20;3.40;;;18.40;55.20;;;;;;5080653;27;20541;-87
2022/10/08 08:28:33;;;;;;;6.30;2.50;;;18.30;55.00;;;;;;5115768;27;20474;-87
2022/10/08 08:31:08;;;;;;;4.90;3.10;;;18.30;54.20;;;;;;5113912;27;20502;-84
2022/10/08 08:33:35;;;;;;;4.90;3.47;;;18.10;54.40;;;;;;5096706;27;20488;-83
2022/10/08 08:36:02;;;;;;;7.87;3.50;;;18.10;54.40;;;;;;5113865;27;20619;-85
2022/10/08 08:38:29;;;;;;;5.47;2.50;;;18.20;54.30;;;;;;5113956;27;20479;-84
2022/10/08 08:41:05;;;;;;;6.03;2.90;;;18.40;54.20;;;;;;5112916;27;20945;-85
2022/10/08 08:43:34;;;;;;;9.80;3.37;;;18.30;53.30;;;;;;5123790;27;20449;-85
2022/10/08 08:46:02;;;;;;;5.13;2.60;;;18.20;53.70;;;;;;5086300;28;20467;-81
2022/10/08 08:48:32;;;;;;;4.33;2.17;;;18.40;53.50;;;;;;5113040;28;20975;-85
2022/10/08 08:51:03;;;;;;;6.23;2.13;;;18.30;53.10;;;;;;5116765;28;21248;-84
2022/10/08 08:53:30;;;;;;;7.23;2.90;;;18.40;53.10;;;;;;5114367;28;20454;-86
2022/10/08 08:56:02;;;;;;;7.97;2.60;;;18.30;52.90;;;;;;5102073;28;20454;-83
2022/10/08 08:58:38;;;;;;;4.63;2.40;;;18.30;53.20;;;;;;5105213;28;21005;-85
2022/10/08 09:01:14;;;;;;;4.40;2.20;;;18.30;53.40;;;;;;5106137;28;20488;-85
2022/10/08 09:03:44;;;;;;;6.30;3.43;;;18.30;52.70;;;;;;5118394;28;20482;-84
2022/10/08 09:06:15;;;;;;;8.00;2.10;;;18.30;52.50;;;;;;5098230;28;21014;-85
2022/10/08 09:08:47;;;;;;;6.63;2.93;;;18.40;52.60;;;;;;5123211;28;20454;-84
2022/10/08 09:11:17;;;;;;;3.43;1.97;;;18.20;52.40;;;;;;5122452;28;21003;-84
2022/10/08 09:13:50;;;;;;;7.97;4.20;;;18.30;53.10;;;;;;5101157;28;20450;-84
2022/10/08 09:16:17;;;;;;;3.47;2.03;;;18.30;52.80;;;;;;5135250;27;20525;-86
2022/10/08 09:18:47;;;;;;;7.87;2.57;;;18.40;52.40;;;;;;5117369;28;20465;-85
2022/10/08 09:21:14;;;;;;;3.03;2.03;;;18.50;52.40;;;;;;5098606;28;20442;-86
2022/10/08 09:23:42;;;;;;;6.57;2.20;;;18.60;52.10;;;;;;5106392;28;21002;-85
2022/10/08 09:26:17;;;;;;;7.07;2.00;;;18.60;51.70;;;;;;5087152;28;20545;-84
2022/10/08 09:28:48;;;;;;;7.40;1.77;;;18.80;52.20;;;;;;5116189;27;20453;-87
2022/10/08 09:31:22;;;;;;;9.33;1.83;;;19.00;51.00;;;;;;5110607;27;20490;-86
2022/10/08 09:34:04;;;;;;;4.10;1.63;;;18.90;51.00;;;;;;5114533;27;20495;-86
2022/10/08 09:36:34;;;;;;;3.87;1.80;;;19.00;50.70;;;;;;5100593;27;20457;-85
2022/10/08 09:39:04;;;;;;;9.43;1.70;;;18.90;51.10;;;;;;5119072;27;20454;-86
2022/10/08 09:41:31;;;;;;;4.73;1.77;;;19.00;50.60;;;;;;5118946;27;20438;-85
2022/10/08 09:44:13;;;;;;;8.30;2.30;;;19.10;50.40;;;;;;5100215;27;20466;-87
2022/10/08 09:46:40;;;;;;;3.30;2.47;;;19.10;50.60;;;;;;5104025;27;20498;-85
2022/10/08 09:49:25;;;;;;;4.00;1.67;;;19.10;50.10;;;;;;5118953;27;20445;-85
2022/10/08 09:51:53;;;;;;;6.83;1.70;;;19.20;50.10;;;;;;5117826;27;21091;-85
2022/10/08 09:54:24;;;;;;;4.03;1.97;;;19.10;49.30;;;;;;5108740;27;20532;-84
2022/10/08 09:56:52;;;;;;;5.33;1.40;;;19.10;50.00;;;;;;5103272;27;20458;-84
2022/10/08 09:59:24;;;;;;;5.90;3.80;;;19.10;50.00;;;;;;5118321;27;20944;-87
2022/10/08 10:01:52;;;;;;;4.00;2.83;;;19.10;49.20;;;;;;5120342;27;20450;-84
2022/10/08 10:04:26;;;;;;;9.03;2.30;;;19.30;49.60;;;;;;5108499;27;20940;-84
2022/10/08 10:06:54;;;;;;;10.30;1.97;;;19.30;49.50;;;;;;5112653;27;20466;-85
2022/10/08 10:09:28;;;;;;;3.40;2.40;;;19.40;48.90;;;;;;5124405;27;20442;-84
2022/10/08 10:12:01;;;;;;;9.63;2.20;;;19.50;48.80;;;;;;5117019;27;20515;-86
2022/10/08 10:14:36;;;;;;;3.53;2.67;;;19.50;49.30;;;;;;5116809;27;20442;-85
2022/10/08 10:17:10;;;;;;;7.40;2.07;;;19.60;49.00;;;;;;5114252;27;20480;-88
2022/10/08 10:19:44;;;;;;;3.30;1.77;;;19.60;47.80;;;;;;5115083;27;20479;-87
2022/10/08 10:22:14;;;;;;;6.27;2.30;;;19.70;47.40;;;;;;5119588;27;20949;-86
2022/10/08 10:24:50;;;;;;;4.43;3.13;;;19.60;48.40;;;;;;5100424;27;20576;-84
2022/10/08 10:27:24;;;;;;;3.87;2.40;;;19.80;48.40;;;;;;5103432;27;20931;-86
2022/10/08 10:30:02;;;;;;;6.30;2.47;;;19.80;48.40;;;;;;5114942;27;20506;-86
2022/10/08 10:32:33;;;;;;;8.47;4.73;;;19.90;47.50;;;;;;5134329;27;20455;-85
2022/10/08 10:35:07;;;;;;;8.87;6.83;;;20.00;47.70;;;;;;5090225;27;20470;-85
2022/10/08 10:37:40;;;;;;;6.67;4.73;;;20.00;47.30;;;;;;5116742;27;20533;-86
2022/10/08 10:40:31;;;;;;;9.53;2.33;;;20.20;47.50;;;;;;5118747;27;20438;-85
2022/10/08 10:43:17;;;;;;;1.80;1.40;;;20.40;47.00;;;;;;5094217;27;20455;-86
2022/10/08 10:45:50;;;;;;;5.07;3.87;;;20.40;46.70;;;;;;5119375;27;20937;-85
2022/10/08 10:48:17;;;;;;;10.00;3.93;;;20.30;46.30;;;;;;5085567;27;21040;-84
2022/10/08 10:51:10;;;;;;;4.23;3.83;;;20.40;46.20;;;;;;5115174;27;20465;-88
2022/10/08 10:53:48;;;;;;;3.10;1.77;;;20.50;46.20;;;;;;5108459;27;20446;-85
2022/10/08 10:56:18;;;;;;;2.97;2.10;;;20.70;45.50;;;;;;5112570;27;20450;-86
2022/10/08 10:59:06;;;;;;;3.33;2.10;;;20.90;45.60;;;;;;5117481;27;20443;-84
2022/10/08 11:01:46;;;;;;;1.60;1.47;;;21.00;45.00;;;;;;5114847;27;20454;-86
2022/10/08 11:04:23;;;;;;;3.63;1.67;;;21.00;44.20;;;;;;5134485;27;20469;-85
2022/10/08 11:07:02;;;;;;;6.60;1.90;;;21.10;45.50;;;;;;5118231;27;20470;-84
2022/10/08 11:09:39;;;;;;;3.20;1.53;;;21.10;45.40;;;;;;5118500;27;20445;-86
2022/10/08 11:12:20;;;;;;;3.10;1.33;;;21.00;44.70;;;;;;5116276;27;20470;-85
2022/10/08 11:14:59;;;;;;;1.73;1.30;;;20.80;45.70;;;;;;5113652;27;20442;-87
2022/10/08 11:17:44;;;;;;;1.37;0.90;;;20.60;45.60;;;;;;5098264;27;20536;-85
2022/10/08 11:20:25;;;;;;;1.60;1.00;;;20.80;46.30;;;;;;5082685;27;20538;-86
2022/10/08 11:23:01;;;;;;;2.33;1.10;;;21.00;46.90;;;;;;5115497;27;20453;-85
2022/10/08 11:25:36;;;;;;;6.40;1.70;;;21.10;46.00;;;;;;5114930;27;20449;-89
2022/10/08 11:28:19;;;;;;;5.67;2.10;;;20.90;46.30;;;;;;5118031;27;20473;-84
2022/10/08 11:30:58;;;;;;;3.40;2.03;;;20.60;47.30;;;;;;5122424;27;20508;-85
2022/10/08 11:33:28;;;;;;;6.27;2.00;;;20.30;49.00;;;;;;5114115;27;20450;-81
2022/10/08 11:36:14;;;;;;;3.90;2.97;;;20.10;49.70;;;;;;5100757;27;20495;-85
2022/10/08 11:38:48;;;;;;;7.73;2.30;;;20.30;50.50;;;;;;5117537;27;20434;-85
2022/10/08 11:41:25;;;;;;;4.63;3.13;;;20.40;49.50;;;;;;5117064;27;20443;-84
2022/10/08 11:43:55;;;;;;;2.07;1.87;;;20.60;49.30;;;;;;5097521;27;20457;-86
2022/10/08 11:46:28;;;;;;;2.90;1.70;;;20.50;48.50;;;;;;5116102;27;20462;-86
2022/10/08 11:48:59;;;;;;;5.47;3.13;;;20.50;49.30;;;;;;5096971;28;20449;-85
2022/10/08 11:51:37;;;;;;;3.47;2.67;;;20.50;48.50;;;;;;5105298;27;20514;-88
2022/10/08 11:54:15;;;;;;;3.80;2.80;;;20.20;48.80;;;;;;5100684;27;20444;-85
2022/10/08 11:56:44;;;;;;;4.77;3.20;;;20.30;50.00;;;;;;5097180;27;20560;-85
2022/10/08 11:59:28;;;;;;;4.00;2.67;;;20.10;50.30;;;;;;5116176;27;20537;-86
2022/10/08 12:01:58;;;;;;;3.50;2.50;;;19.90;51.10;;;;;;5100395;27;20504;-88
2022/10/08 12:04:31;;;;;;;4.23;1.80;;;19.70;52.20;;;;;;5114257;27;20471;-84
2022/10/08 12:07:23;;;;;;;6.93;3.17;;;19.50;52.90;;;;;;5113074;27;20470;-85
2022/10/08 12:10:32;;;;;;;9.60;2.80;;;19.40;52.70;;;;;;5114734;27;21091;-86
2022/10/08 12:13:05;;;;;;;3.03;2.20;;;19.50;53.00;;;;;;5106296;27;21011;-86
2022/10/08 12:15:53;;;;;;;7.20;3.20;;;19.40;53.20;;;;;;5099886;27;20439;-85
2022/10/08 12:18:31;;;;;;;6.33;2.87;;;19.40;52.80;;;;;;5116137;27;20490;-85
2022/10/08 12:21:44;;;;;;;5.97;4.07;;;19.40;53.30;;;;;;5107540;27;20555;-84
2022/10/08 12:24:54;;;;;;;8.00;2.40;;;19.40;53.40;;;;;;5034673;27;20527;-84
2022/10/08 12:27:28;;;;;;;4.83;2.97;;;19.40;53.20;;;;;;5063319;27;20453;-85
2022/10/08 12:29:57;;;;;;;4.70;2.50;;;19.40;52.90;;;;;;5099609;27;20489;-85
2022/10/08 12:32:25;;;;;;;6.43;3.73;;;19.50;53.00;;;;;;5081855;28;21162;-87
2022/10/08 12:34:53;;;;;;;6.30;3.43;;;19.90;52.30;;;;;;5072916;27;20538;-84
2022/10/08 12:37:40;;;;;;;3.33;2.67;;;20.10;52.80;;;;;;5082635;27;20484;-86
2022/10/08 12:40:17;;;;;;;2.53;2.07;;;20.30;51.00;;;;;;5083246;28;20485;-85
2022/10/08 12:42:48;;;;;;;7.43;4.60;;;20.50;50.90;;;;;;5082611;28;20814;-85
2022/10/08 12:45:22;;;;;;;6.60;3.40;;;20.50;50.60;;;;;;5117832;27;20508;-86
2022/10/08 12:47:56;;;;;;;9.60;5.67;;;20.50;50.40;;;;;;5105017;28;20977;-84
2022/10/08 12:50:36;;;;;;;8.00;5.17;;;20.30;49.90;;;;;;5093991;28;20533;-87
2022/10/08 12:53:06;;;;;;;4.10;3.70;;;19.90;50.60;;;;;;5092081;28;20457;-84
2022/10/08 12:55:37;;;;;;;3.50;2.40;;;19.80;50.70;;;;;;5098340;28;20545;-85